createdAt,value
2023-04-04T00:00:40.614Z,63.80
2023-04-04T00:03:07.857Z,63.70
2023-04-04T00:05:36.019Z,64.30
2023-04-04T00:08:04.540Z,64.70
2023-04-04T00:10:31.624Z,65.10
2023-04-04T00:12:58.895Z,65.00
2023-04-04T00:15:26.225Z,65.30
2023-04-04T00:17:53.190Z,66.20
2023-04-04T00:20:20.265Z,66.40
2023-04-04T00:22:47.115Z,66.60
2023-04-04T00:25:14.370Z,66.90
2023-04-04T00:27:41.231Z,66.90
2023-04-04T00:30:09.198Z,66.70
2023-04-04T00:32:36.163Z,66.90
2023-04-04T00:35:03.223Z,67.00
2023-04-04T00:37:30.074Z,66.90
2023-04-04T00:39:57.038Z,67.10
2023-04-04T00:42:24.073Z,67.30
2023-04-04T00:44:52.741Z,67.30
2023-04-04T00:47:25.812Z,67.30
2023-04-04T00:49:52.750Z,67.20
2023-04-04T00:52:19.661Z,67.30
2023-04-04T00:54:46.705Z,67.00
2023-04-04T00:57:14.159Z,66.70
2023-04-04T00:59:41.859Z,66.20
2023-04-04T01:02:08.938Z,65.70
2023-04-04T01:04:36.978Z,64.90
2023-04-04T01:07:04.375Z,64.20
2023-04-04T01:09:32.076Z,63.90
2023-04-04T01:12:00.244Z,63.70
2023-04-04T01:14:27.424Z,63.50
2023-04-04T01:16:55.264Z,63.70
2023-04-04T01:19:53.390Z,64.20
2023-04-04T01:22:23.197Z,64.60
2023-04-04T01:24:51.799Z,65.10
2023-04-04T01:27:18.661Z,65.20
2023-04-04T01:29:45.513Z,65.60
2023-04-04T01:32:20.976Z,66.50
2023-04-04T01:35:42.638Z,66.30
2023-04-04T01:38:39.142Z,66.40
2023-04-04T01:41:11.987Z,66.60
2023-04-04T01:43:39.078Z,66.30
2023-04-04T01:46:06.623Z,66.50
2023-04-04T01:48:33.525Z,66.80
2023-04-04T01:51:02.414Z,67.10
2023-04-04T01:53:29.362Z,67.30
2023-04-04T01:55:56.540Z,67.40
2023-04-04T01:58:23.423Z,67.30
2023-04-04T02:00:50.385Z,67.50
2023-04-04T02:03:17.440Z,67.70
2023-04-04T02:05:44.454Z,67.70
2023-04-04T02:08:12.170Z,67.90
2023-04-04T02:10:39.575Z,68.20
2023-04-04T02:13:07.303Z,68.50
2023-04-04T02:15:35.386Z,68.90
2023-04-04T02:18:03.468Z,69.10
2023-04-04T02:20:30.445Z,70.00
2023-04-04T02:22:57.502Z,70.70
2023-04-04T02:25:25.750Z,70.80
2023-04-04T02:27:52.652Z,70.80
2023-04-04T02:30:19.592Z,70.90
2023-04-04T02:32:47.327Z,71.00
2023-04-04T02:35:15.547Z,71.20
2023-04-04T02:37:49.064Z,71.30
2023-04-04T02:40:16.180Z,71.20
2023-04-04T02:42:46.351Z,70.90
2023-04-04T02:45:14.391Z,70.70
2023-04-04T02:47:42.924Z,70.80
2023-04-04T02:50:11.353Z,71.00
2023-04-04T02:52:38.201Z,71.30
2023-04-04T02:55:06.972Z,71.50
2023-04-04T02:57:34.916Z,71.60
2023-04-04T03:00:04.252Z,71.40
2023-04-04T03:02:31.735Z,71.60
2023-04-04T03:04:58.838Z,71.50
2023-04-04T03:07:25.931Z,71.60
2023-04-04T03:09:52.846Z,71.70
2023-04-04T03:12:22.573Z,71.80
2023-04-04T03:14:49.486Z,72.00
2023-04-04T03:17:18.113Z,72.20
2023-04-04T03:19:45.658Z,72.60
2023-04-04T03:22:12.538Z,73.00
2023-04-04T03:24:40.274Z,73.20
2023-04-04T03:27:07.290Z,73.60
2023-04-04T03:29:34.477Z,73.60
2023-04-04T03:32:01.945Z,73.90
2023-04-04T03:34:28.972Z,74.50
2023-04-04T03:36:57.454Z,74.30
2023-04-04T03:39:29.568Z,74.60
2023-04-04T03:41:58.090Z,74.90
2023-04-04T03:44:24.960Z,75.30
2023-04-04T03:46:52.037Z,75.70
2023-04-04T03:49:19.006Z,76.00
2023-04-04T03:51:45.975Z,76.10
2023-04-04T03:54:12.905Z,76.00
2023-04-04T03:56:39.995Z,75.60
2023-04-04T03:59:07.101Z,75.30
2023-04-04T04:01:34.104Z,75.30
2023-04-04T04:04:01.257Z,75.50
2023-04-04T04:06:28.267Z,75.60
2023-04-04T04:08:56.404Z,75.20
2023-04-04T04:11:23.353Z,75.30
2023-04-04T04:13:50.689Z,75.10
2023-04-04T04:16:17.759Z,74.80
2023-04-04T04:18:44.734Z,75.00
2023-04-04T04:21:11.620Z,74.80
2023-04-04T04:23:38.568Z,74.60
2023-04-04T04:26:06.455Z,74.40
2023-04-04T04:28:34.491Z,74.30
2023-04-04T04:31:10.439Z,74.20
2023-04-04T04:33:37.328Z,74.20
2023-04-04T04:36:07.108Z,74.60
2023-04-04T04:38:34.258Z,74.50
2023-04-04T04:41:01.978Z,74.10
2023-04-04T04:43:28.871Z,74.10
2023-04-04T04:45:55.775Z,74.00
2023-04-04T04:48:22.746Z,73.90
2023-04-04T04:50:49.678Z,73.80
2023-04-04T04:53:16.844Z,73.60
2023-04-04T04:55:43.745Z,73.60
2023-04-04T04:58:11.049Z,73.50
2023-04-04T05:00:39.326Z,73.30
2023-04-04T05:03:09.643Z,73.30
2023-04-04T05:05:37.672Z,73.20
2023-04-04T05:08:05.465Z,73.10
2023-04-04T05:10:32.573Z,73.10
2023-04-04T05:12:59.460Z,72.80
2023-04-04T05:15:28.980Z,72.90
2023-04-04T05:17:56.207Z,73.20
2023-04-04T05:20:23.357Z,73.30
2023-04-04T05:22:51.549Z,73.20
2023-04-04T05:25:19.501Z,73.00
2023-04-04T05:27:49.773Z,72.80
2023-04-04T05:30:16.925Z,72.40
2023-04-04T05:32:46.276Z,71.80
2023-04-04T05:35:13.402Z,71.40
2023-04-04T05:37:41.033Z,70.70
2023-04-04T05:40:09.081Z,70.10
2023-04-04T05:42:35.948Z,69.70
2023-04-04T05:45:03.571Z,69.50
2023-04-04T05:47:30.452Z,68.70
2023-04-04T05:49:57.799Z,68.20
2023-04-04T05:52:24.741Z,67.40
2023-04-04T05:54:51.578Z,66.80
2023-04-04T05:57:18.420Z,66.00
2023-04-04T05:59:45.264Z,66.10
2023-04-04T06:02:12.197Z,65.70
2023-04-04T06:04:40.827Z,65.20
2023-04-04T06:07:07.722Z,65.00
2023-04-04T06:09:36.094Z,65.00
2023-04-04T06:12:05.810Z,64.50
2023-04-04T06:14:32.833Z,64.00
2023-04-04T06:16:59.828Z,63.40
2023-04-04T06:19:26.713Z,62.60
2023-04-04T06:21:53.550Z,62.40
2023-04-04T06:24:20.839Z,62.00
2023-04-04T06:26:51.335Z,62.00
2023-04-04T06:29:18.556Z,61.80
2023-04-04T06:31:45.776Z,61.60
2023-04-04T06:34:12.704Z,60.90
2023-04-04T06:36:39.544Z,60.70
2023-04-04T06:39:06.421Z,59.70
2023-04-04T06:41:33.432Z,59.00
2023-04-04T06:44:00.586Z,59.10
2023-04-04T06:46:27.777Z,58.60
2023-04-04T06:48:54.826Z,58.80
2023-04-04T06:51:21.870Z,59.10
2023-04-04T06:53:50.034Z,57.80
2023-04-04T06:56:16.998Z,57.20
2023-04-04T06:58:44.178Z,56.10
2023-04-04T07:01:11.667Z,57.30
2023-04-04T07:03:38.524Z,56.60
2023-04-04T07:06:05.958Z,56.50
2023-04-04T07:08:36.263Z,56.50
2023-04-04T07:11:06.169Z,55.90
2023-04-04T07:13:33.480Z,56.40
2023-04-04T07:16:00.650Z,56.40
2023-04-04T07:18:27.748Z,57.00
2023-04-04T07:20:54.589Z,55.70
2023-04-04T07:23:21.464Z,55.70
2023-04-04T07:25:48.378Z,56.00
2023-04-04T07:28:15.226Z,55.40
2023-04-04T07:30:42.448Z,55.30
2023-04-04T07:33:09.614Z,54.60
2023-04-04T07:35:36.561Z,55.80
2023-04-04T07:38:04.289Z,55.30
2023-04-04T07:40:31.817Z,55.20
2023-04-04T07:42:58.789Z,55.40
2023-04-04T07:45:26.006Z,53.40
2023-04-04T07:47:52.923Z,52.90
2023-04-04T07:50:19.877Z,51.50
2023-04-04T07:52:54.405Z,53.60
2023-04-04T07:55:24.945Z,54.30
2023-04-04T07:57:53.122Z,55.30
2023-04-04T08:03:53.213Z,54.60
2023-04-04T08:06:20.615Z,55.70
2023-04-04T08:08:48.010Z,55.30
2023-04-04T08:11:15.054Z,56.50
2023-04-04T08:13:42.533Z,56.20
2023-04-04T08:16:09.446Z,55.60
2023-04-04T08:18:36.397Z,56.00
2023-04-04T08:21:03.269Z,56.30
2023-04-04T08:23:30.523Z,55.80
2023-04-04T08:25:59.823Z,55.20
2023-04-04T08:28:27.660Z,54.40
2023-04-04T08:30:55.093Z,54.50
2023-04-04T08:33:28.908Z,53.70
2023-04-04T08:36:01.329Z,52.60
2023-04-04T08:38:28.204Z,52.70
2023-04-04T08:40:55.685Z,52.20
2023-04-04T08:43:26.534Z,52.00
2023-04-04T08:45:55.082Z,52.50
2023-04-04T08:48:26.512Z,51.50
2023-04-04T08:50:57.713Z,52.20
2023-04-04T08:53:24.892Z,52.20
2023-04-04T08:55:52.714Z,52.30
2023-04-04T08:58:19.655Z,51.70
2023-04-04T09:00:47.024Z,51.60
2023-04-04T09:03:32.741Z,51.10
2023-04-04T09:06:02.304Z,51.50
2023-04-04T09:08:30.358Z,49.40
2023-04-04T09:11:01.321Z,47.30
2023-04-04T09:13:28.329Z,47.00
2023-04-04T09:15:58.647Z,47.30
2023-04-04T09:18:25.504Z,47.80
2023-04-04T09:20:52.708Z,47.80
2023-04-04T09:23:21.268Z,46.80
2023-04-04T09:28:24.195Z,47.90
2023-04-04T09:30:52.860Z,49.10
2023-04-04T09:33:23.931Z,49.70
2023-04-04T09:35:58.982Z,48.20
2023-04-04T09:38:30.062Z,49.10
2023-04-04T09:40:57.726Z,50.20
2023-04-04T09:43:30.639Z,50.50
2023-04-04T09:45:58.232Z,49.30
2023-04-04T09:48:34.775Z,48.80
2023-04-04T09:51:07.129Z,47.50
2023-04-04T09:53:42.320Z,46.00
2023-04-04T09:56:09.959Z,46.30
2023-04-04T09:58:46.416Z,46.00
2023-04-04T10:01:19.860Z,41.50
2023-04-04T10:03:54.783Z,40.10
2023-04-04T10:06:23.486Z,41.00
2023-04-04T10:08:51.087Z,41.20
2023-04-04T10:11:35.817Z,41.80
2023-04-04T10:14:05.876Z,40.60
2023-04-04T10:16:37.581Z,37.60
2023-04-04T10:19:07.657Z,37.20
2023-04-04T10:21:35.647Z,41.40
2023-04-04T10:24:09.013Z,40.00
2023-04-04T10:26:36.576Z,38.40
2023-04-04T10:29:04.878Z,35.80
2023-04-04T10:31:38.192Z,36.70
2023-04-04T10:34:28.381Z,37.60
2023-04-04T10:37:13.568Z,40.20
2023-04-04T10:40:16.171Z,39.50
2023-04-04T10:42:47.662Z,38.90
2023-04-04T10:45:20.587Z,38.40
2023-04-04T10:47:49.119Z,39.10
2023-04-04T10:50:16.139Z,37.70
2023-04-04T10:52:45.714Z,40.50
2023-04-04T10:55:15.776Z,39.50
2023-04-04T10:57:55.138Z,38.00
2023-04-04T11:00:24.177Z,38.00
2023-04-04T11:03:02.568Z,38.60
2023-04-04T11:05:47.148Z,37.90
2023-04-04T11:08:26.861Z,35.40
2023-04-04T11:10:55.559Z,36.00
2023-04-04T11:13:37.557Z,34.90
2023-04-04T11:16:17.969Z,34.80
2023-04-04T11:18:47.727Z,35.80
2023-04-04T11:21:27.900Z,35.50
2023-04-04T11:23:54.661Z,36.10
2023-04-04T11:26:30.553Z,36.50
2023-04-04T11:29:07.840Z,36.50
2023-04-04T11:31:45.933Z,34.70
2023-04-04T11:34:31.314Z,35.90
2023-04-04T11:37:01.687Z,35.00
2023-04-04T11:39:31.262Z,36.10
2023-04-04T11:42:14.670Z,35.50
2023-04-04T11:45:03.628Z,36.10
2023-04-04T11:47:31.426Z,34.50
2023-04-04T11:50:07.108Z,36.60
2023-04-04T11:52:35.186Z,38.70
2023-04-04T11:55:17.963Z,36.90
2023-04-04T11:57:47.919Z,38.50
2023-04-04T12:00:37.853Z,37.30
2023-04-04T12:03:11.059Z,36.60
2023-04-04T12:05:44.409Z,39.40
2023-04-04T12:08:14.002Z,40.70
2023-04-04T12:10:41.474Z,41.80
2023-04-04T12:13:10.499Z,42.30
2023-04-04T12:15:38.403Z,43.40
2023-04-04T12:18:09.223Z,43.90
2023-04-04T12:20:40.983Z,44.50
2023-04-04T12:23:07.938Z,44.50
2023-04-04T12:25:39.979Z,45.60
2023-04-04T12:28:08.600Z,44.70
2023-04-04T12:30:35.917Z,45.70
2023-04-04T12:33:03.463Z,45.30
2023-04-04T12:35:31.452Z,45.20
2023-04-04T12:38:02.328Z,43.20
2023-04-04T12:40:38.101Z,42.70
2023-04-04T12:43:08.766Z,43.60
2023-04-04T12:45:41.166Z,43.80
2023-04-04T12:48:17.922Z,44.40
2023-04-04T12:51:00.650Z,42.30
2023-04-04T12:56:16.984Z,42.90
2023-04-04T12:58:48.340Z,43.20
2023-04-04T13:01:19.517Z,40.90
2023-04-04T13:03:47.126Z,39.70
2023-04-04T13:06:18.490Z,38.40
2023-04-04T13:08:54.326Z,37.80
2023-04-04T13:11:22.352Z,35.80
2023-04-04T13:14:02.456Z,34.50
2023-04-04T13:16:36.950Z,34.20
2023-04-04T13:19:05.178Z,31.80
2023-04-04T13:21:33.108Z,31.20
2023-04-04T13:24:03.763Z,31.10
2023-04-04T13:26:31.074Z,33.20
2023-04-04T13:28:57.917Z,33.70
2023-04-04T13:31:24.831Z,36.00
2023-04-04T13:33:51.799Z,37.70
2023-04-04T13:36:18.692Z,38.80
2023-04-04T13:38:45.545Z,39.40
2023-04-04T13:41:12.551Z,38.00
2023-04-04T13:43:39.422Z,33.90
2023-04-04T13:46:06.322Z,33.10
2023-04-04T13:48:33.227Z,35.00
2023-04-04T13:51:00.130Z,35.80
2023-04-04T13:53:27.010Z,37.50
2023-04-04T13:58:23.746Z,37.00
2023-04-04T14:00:50.948Z,35.30
2023-04-04T14:03:18.245Z,35.20
2023-04-04T14:05:45.632Z,36.60
2023-04-04T14:08:12.551Z,38.60
2023-04-04T14:10:39.412Z,38.80
2023-04-04T14:13:06.663Z,36.40
2023-04-04T14:15:33.766Z,32.80
2023-04-04T14:18:00.697Z,32.60
2023-04-04T14:20:27.661Z,34.50
2023-04-04T14:22:54.499Z,35.80
2023-04-04T14:25:21.446Z,38.60
2023-04-04T14:27:48.451Z,40.90
2023-04-04T14:30:16.042Z,42.40
2023-04-04T14:32:43.016Z,43.60
2023-04-04T14:35:10.038Z,44.40
2023-04-04T14:37:37.069Z,45.40
2023-04-04T14:40:06.041Z,45.20
2023-04-04T14:42:32.955Z,44.80
2023-04-04T14:45:02.252Z,45.10
2023-04-04T14:47:29.157Z,44.60
2023-04-04T14:49:56.193Z,44.10
2023-04-04T14:52:23.123Z,42.20
2023-04-04T14:54:49.972Z,39.20
2023-04-04T14:57:17.537Z,36.50
2023-04-04T14:59:44.401Z,34.60
2023-04-04T15:02:11.343Z,33.60
2023-04-04T15:04:38.384Z,33.30
2023-04-04T15:07:05.387Z,32.40
2023-04-04T15:09:32.260Z,32.00
2023-04-04T15:11:59.449Z,32.70
2023-04-04T15:14:26.332Z,32.20
2023-04-04T15:16:54.407Z,33.00
2023-04-04T15:19:21.277Z,33.30
2023-04-04T15:21:49.419Z,35.70
2023-04-04T15:24:16.292Z,36.50
2023-04-04T15:26:43.615Z,36.30
2023-04-04T15:29:10.704Z,35.10
2023-04-04T15:31:38.151Z,35.20
2023-04-04T15:34:05.033Z,36.10
2023-04-04T15:36:33.899Z,37.70
2023-04-04T15:39:00.982Z,39.70
2023-04-04T15:41:29.164Z,40.80
2023-04-04T15:43:56.027Z,42.10
2023-04-04T15:46:23.217Z,42.70
2023-04-04T15:48:52.114Z,44.20
2023-04-04T15:51:21.478Z,45.00
2023-04-04T15:53:48.601Z,46.10
2023-04-04T15:56:16.040Z,46.00
2023-04-04T15:58:42.900Z,46.30
2023-04-04T16:01:09.834Z,44.70
2023-04-04T16:03:36.748Z,42.30
2023-04-04T16:06:06.382Z,39.00
2023-04-04T16:08:33.251Z,36.60
2023-04-04T16:11:00.218Z,36.50
2023-04-04T16:13:27.503Z,35.40
2023-04-04T16:15:55.413Z,35.20
2023-04-04T16:18:22.390Z,35.40
2023-04-04T16:20:49.383Z,34.50
2023-04-04T16:23:17.678Z,33.60
2023-04-04T16:25:44.898Z,33.90
2023-04-04T16:28:11.852Z,35.20
2023-04-04T16:30:39.100Z,35.70
2023-04-04T16:33:06.722Z,37.10
2023-04-04T16:35:33.713Z,38.90
2023-04-04T16:38:00.585Z,40.20
2023-04-04T16:40:27.456Z,40.80
2023-04-04T16:42:54.429Z,42.20
2023-04-04T16:45:21.579Z,43.00
2023-04-04T16:47:48.590Z,43.90
2023-04-04T16:50:16.266Z,44.40
2023-04-04T16:52:43.182Z,45.50
2023-04-04T16:55:10.650Z,46.30
2023-04-04T16:57:37.498Z,47.00
2023-04-04T17:00:09.744Z,46.90
2023-04-04T17:02:39.930Z,47.30
2023-04-04T17:05:09.460Z,47.60
2023-04-04T17:07:36.400Z,48.00
2023-04-04T17:10:04.064Z,48.50
2023-04-04T17:12:31.120Z,48.40
2023-04-04T17:14:58.087Z,48.30
2023-04-04T17:17:24.998Z,49.30
2023-04-04T17:19:51.872Z,49.20
2023-04-04T17:22:18.894Z,49.20
2023-04-04T17:24:46.053Z,49.80
2023-04-04T17:27:13.595Z,49.80
2023-04-04T17:29:40.456Z,49.80
2023-04-04T17:32:07.553Z,50.40
2023-04-04T17:34:34.522Z,50.60
2023-04-04T17:37:01.564Z,50.60
2023-04-04T17:39:28.572Z,50.80
2023-04-04T17:41:56.021Z,51.00
2023-04-04T17:44:22.927Z,51.20
2023-04-04T17:46:49.912Z,51.30
2023-04-04T17:49:19.459Z,51.50
2023-04-04T17:51:50.124Z,52.00
2023-04-04T17:54:17.604Z,52.60
2023-04-04T17:56:45.935Z,53.30
2023-04-04T17:59:14.586Z,54.60
2023-04-04T18:01:41.861Z,54.70
2023-04-04T18:04:09.346Z,55.50
2023-04-04T18:06:38.936Z,55.60
2023-04-04T18:09:07.511Z,56.00
2023-04-04T18:11:36.604Z,56.60
2023-04-04T18:14:04.270Z,57.10
2023-04-04T18:16:38.979Z,57.30
2023-04-04T18:19:07.099Z,58.00
2023-04-04T18:21:33.991Z,58.70
2023-04-04T18:24:01.401Z,59.20
2023-04-04T18:26:28.625Z,60.10
2023-04-04T18:28:55.767Z,60.70
2023-04-04T18:31:22.765Z,61.50
2023-04-04T18:33:49.768Z,63.20
2023-04-04T18:36:17.017Z,65.50
2023-04-04T18:38:45.314Z,66.60
2023-04-04T18:41:12.304Z,67.40
2023-04-04T18:43:39.358Z,67.80
2023-04-04T18:46:06.349Z,68.20
2023-04-04T18:48:33.905Z,68.80
2023-04-04T18:51:01.745Z,69.70
2023-04-04T18:53:29.557Z,70.70
2023-04-04T18:55:58.561Z,71.10
2023-04-04T18:58:27.009Z,71.80
2023-04-04T19:00:58.347Z,72.60
2023-04-04T19:03:26.229Z,73.50
2023-04-04T19:05:56.074Z,74.20
2023-04-04T19:08:24.065Z,74.70
2023-04-04T19:10:51.303Z,75.10
2023-04-04T19:13:18.574Z,75.60
2023-04-04T19:15:45.564Z,76.10
2023-04-04T19:18:12.532Z,77.20
2023-04-04T19:20:43.357Z,78.30
2023-04-04T19:23:10.322Z,79.70
2023-04-04T19:25:37.203Z,80.80
2023-04-04T19:28:04.378Z,81.20
2023-04-04T19:30:44.747Z,81.60
2023-04-04T19:33:25.624Z,82.20
2023-04-04T19:36:00.298Z,82.60
2023-04-04T19:38:34.524Z,82.90
2023-04-04T19:41:26.426Z,83.10
2023-04-04T19:43:53.273Z,83.30
2023-04-04T19:46:31.435Z,82.90
2023-04-04T19:49:03.102Z,82.30
2023-04-04T19:51:29.830Z,81.30
2023-04-04T19:53:59.700Z,80.20
2023-04-04T19:56:28.427Z,79.30
2023-04-04T19:59:03.439Z,78.60
2023-04-04T20:01:37.657Z,78.20
2023-04-04T20:04:10.110Z,77.80
2023-04-04T20:06:38.683Z,77.40
2023-04-04T20:09:31.695Z,76.90
2023-04-04T20:11:58.574Z,76.50
2023-04-04T20:14:25.751Z,76.30
2023-04-04T20:16:53.647Z,76.20
2023-04-04T20:19:25.939Z,76.30
2023-04-04T20:21:52.990Z,77.00
2023-04-04T20:24:21.458Z,76.10
2023-04-04T20:26:55.188Z,76.10
2023-04-04T20:29:27.293Z,75.90
2023-04-04T20:31:58.973Z,75.60
2023-04-04T20:34:46.713Z,75.70
2023-04-04T20:37:22.932Z,75.40
2023-04-04T20:40:09.037Z,75.10
2023-04-04T20:42:40.594Z,74.90
2023-04-04T20:45:11.110Z,74.60
2023-04-04T20:47:54.900Z,74.40
2023-04-04T20:50:26.849Z,74.50
2023-04-04T20:53:03.410Z,74.50
2023-04-04T20:55:33.796Z,74.30
2023-04-04T20:58:29.413Z,74.30
2023-04-04T21:01:00.721Z,73.80
2023-04-04T21:03:36.591Z,73.30
2023-04-04T21:06:16.452Z,73.00
2023-04-04T21:08:50.063Z,72.60
2023-04-04T21:11:32.245Z,72.40
2023-04-04T21:13:59.106Z,72.20
2023-04-04T21:16:27.952Z,72.00
2023-04-04T21:19:00.517Z,72.00
2023-04-04T21:21:28.393Z,71.90
2023-04-04T21:23:59.660Z,71.90
2023-04-04T21:26:32.633Z,72.00
2023-04-04T21:29:26.301Z,72.10
2023-04-04T21:31:56.195Z,72.00
2023-04-04T21:34:27.304Z,71.80
2023-04-04T21:37:01.663Z,71.60
2023-04-04T21:39:30.651Z,71.60
2023-04-04T21:42:06.937Z,71.90
2023-04-04T21:44:33.996Z,71.30
2023-04-04T21:47:00.820Z,71.30
2023-04-04T21:49:28.159Z,70.90
2023-04-04T21:51:55.174Z,70.40
2023-04-04T21:54:23.184Z,70.30
2023-04-04T21:56:50.053Z,70.20
2023-04-04T21:59:16.957Z,69.70
2023-04-04T22:01:43.989Z,69.40
2023-04-04T22:04:10.904Z,69.60
2023-04-04T22:06:37.815Z,68.90
2023-04-04T22:09:05.505Z,68.90
2023-04-04T22:11:34.290Z,68.60
2023-04-04T22:14:04.694Z,68.50
2023-04-04T22:16:36.526Z,68.00
2023-04-04T22:19:04.018Z,67.70
2023-04-04T22:21:36.448Z,67.70
2023-04-04T22:24:05.517Z,67.70
2023-04-04T22:26:33.643Z,67.30
2023-04-04T22:29:03.762Z,67.20
2023-04-04T22:31:33.765Z,67.20
2023-04-04T22:34:00.694Z,66.90
2023-04-04T22:36:27.528Z,66.50
2023-04-04T22:38:58.142Z,66.50
2023-04-04T22:41:28.435Z,66.20
2023-04-04T22:43:57.809Z,66.10
2023-04-04T22:46:26.626Z,66.10
2023-04-04T22:49:04.604Z,65.80
2023-04-04T22:51:34.693Z,65.90
2023-04-04T22:54:03.186Z,65.70
2023-04-04T22:56:30.416Z,65.50
2023-04-04T22:58:57.739Z,65.50
2023-04-04T23:01:25.672Z,65.40
2023-04-04T23:03:52.636Z,65.30
2023-04-04T23:06:19.984Z,65.60
2023-04-04T23:08:47.061Z,65.60
2023-04-04T23:11:14.145Z,65.40
2023-04-04T23:13:43.115Z,65.60
2023-04-04T23:16:10.039Z,65.80
2023-04-04T23:18:36.939Z,65.90
2023-04-04T23:21:04.022Z,65.90
2023-04-04T23:23:31.166Z,65.80
2023-04-04T23:25:58.255Z,66.00
2023-04-04T23:28:29.363Z,65.90
2023-04-04T23:30:56.220Z,65.80
2023-04-04T23:33:23.113Z,66.00
2023-04-04T23:35:50.071Z,66.20
2023-04-04T23:38:17.013Z,66.10
2023-04-04T23:40:43.846Z,66.20
2023-04-04T23:43:10.901Z,66.30
2023-04-04T23:45:40.314Z,66.50
2023-04-04T23:48:07.387Z,66.80
2023-04-04T23:50:34.516Z,66.90
2023-04-04T23:53:01.574Z,67.00
2023-04-04T23:55:28.470Z,67.30
2023-04-04T23:58:03.031Z,67.50
